sensor_id;sensor_type;location;lat;lon;timestamp;pressure;altitude;pressure_sealevel;temperature;humidity
34742;BME280;20968;42.696;23.360;2023-05-28T00:01:07;95127.84;;;17.86;71.55
34742;BME280;20968;42.696;23.360;2023-05-28T00:03:38;95124.28;;;17.86;72.11
34742;BME280;20968;42.696;23.360;2023-05-28T00:06:07;95130.03;;;17.75;71.90
34742;BME280;20968;42.696;23.360;2023-05-28T00:08:37;95139.81;;;17.81;72.21
34742;BME280;20968;42.696;23.360;2023-05-28T00:11:07;95142.75;;;17.89;72.70
34742;BME280;20968;42.696;23.360;2023-05-28T00:13:33;95119.78;;;17.83;72.56
34742;BME280;20968;42.696;23.360;2023-05-28T00:15:59;95135.75;;;17.82;72.85
34742;BME280;20968;42.696;23.360;2023-05-28T00:18:26;95142.69;;;17.76;73.22
34742;BME280;20968;42.696;23.360;2023-05-28T00:20:54;95138.22;;;17.67;73.92
34742;BME280;20968;42.696;23.360;2023-05-28T00:23:20;95128.19;;;17.59;73.14
34742;BME280;20968;42.696;23.360;2023-05-28T00:25:46;95134.00;;;17.61;73.75
34742;BME280;20968;42.696;23.360;2023-05-28T00:28:13;95127.91;;;17.62;73.63
34742;BME280;20968;42.696;23.360;2023-05-28T00:30:41;95127.38;;;17.64;73.85
34742;BME280;20968;42.696;23.360;2023-05-28T00:33:06;95113.00;;;17.60;73.78
34742;BME280;20968;42.696;23.360;2023-05-28T00:35:34;95104.41;;;17.58;73.54
34742;BME280;20968;42.696;23.360;2023-05-28T00:38:11;95110.81;;;17.53;73.90
34742;BME280;20968;42.696;23.360;2023-05-28T00:40:44;95104.69;;;17.54;73.18
34742;BME280;20968;42.696;23.360;2023-05-28T00:43:27;95107.94;;;17.58;74.08
34742;BME280;20968;42.696;23.360;2023-05-28T00:45:57;95121.56;;;17.62;74.28
34742;BME280;20968;42.696;23.360;2023-05-28T00:48:25;95119.78;;;17.64;74.57
34742;BME280;20968;42.696;23.360;2023-05-28T00:50:53;95111.00;;;17.55;74.53
34742;BME280;20968;42.696;23.360;2023-05-28T00:53:21;95112.22;;;17.59;74.36
34742;BME280;20968;42.696;23.360;2023-05-28T00:55:53;95092.28;;;17.37;74.64
34742;BME280;20968;42.696;23.360;2023-05-28T00:58:25;95092.09;;;17.29;75.70
34742;BME280;20968;42.696;23.360;2023-05-28T01:01:03;95115.13;;;17.30;75.67
34742;BME280;20968;42.696;23.360;2023-05-28T01:03:32;95105.81;;;17.22;75.62
34742;BME280;20968;42.696;23.360;2023-05-28T01:06:09;95102.63;;;17.13;75.21
34742;BME280;20968;42.696;23.360;2023-05-28T01:08:37;95114.03;;;17.09;75.67
34742;BME280;20968;42.696;23.360;2023-05-28T01:11:06;95103.50;;;17.02;76.47
34742;BME280;20968;42.696;23.360;2023-05-28T01:13:34;95098.41;;;17.06;77.39
34742;BME280;20968;42.696;23.360;2023-05-28T01:16:02;95096.06;;;17.10;76.88
34742;BME280;20968;42.696;23.360;2023-05-28T01:18:28;95090.69;;;16.94;76.88
34742;BME280;20968;42.696;23.360;2023-05-28T01:20:56;95085.88;;;16.94;77.37
34742;BME280;20968;42.696;23.360;2023-05-28T01:23:56;95089.59;;;17.02;77.05
34742;BME280;20968;42.696;23.360;2023-05-28T01:26:24;95082.88;;;16.92;77.86
34742;BME280;20968;42.696;23.360;2023-05-28T01:28:58;95087.38;;;16.95;77.33
34742;BME280;20968;42.696;23.360;2023-05-28T01:31:25;95077.91;;;16.85;76.71
34742;BME280;20968;42.696;23.360;2023-05-28T01:33:50;95082.44;;;16.83;77.19
34742;BME280;20968;42.696;23.360;2023-05-28T01:36:32;95073.94;;;16.75;77.12
34742;BME280;20968;42.696;23.360;2023-05-28T01:39:00;95089.22;;;16.87;77.27
34742;BME280;20968;42.696;23.360;2023-05-28T01:41:29;95095.78;;;16.90;77.41
34742;BME280;20968;42.696;23.360;2023-05-28T01:43:56;95092.50;;;16.91;76.29
34742;BME280;20968;42.696;23.360;2023-05-28T01:46:27;95085.22;;;16.83;76.26
34742;BME280;20968;42.696;23.360;2023-05-28T01:48:53;95076.97;;;16.77;76.39
34742;BME280;20968;42.696;23.360;2023-05-28T01:51:29;95076.47;;;16.73;76.96
34742;BME280;20968;42.696;23.360;2023-05-28T01:53:55;95067.44;;;16.67;77.09
34742;BME280;20968;42.696;23.360;2023-05-28T01:56:21;95074.19;;;16.77;76.76
34742;BME280;20968;42.696;23.360;2023-05-28T01:58:47;95081.22;;;16.78;76.93
34742;BME280;20968;42.696;23.360;2023-05-28T02:01:28;95081.22;;;16.78;76.97
34742;BME280;20968;42.696;23.360;2023-05-28T02:03:55;95069.91;;;16.76;76.40
34742;BME280;20968;42.696;23.360;2023-05-28T02:06:21;95083.66;;;16.87;76.62
34742;BME280;20968;42.696;23.360;2023-05-28T02:08:48;95087.97;;;16.88;76.29
34742;BME280;20968;42.696;23.360;2023-05-28T02:11:19;95076.84;;;16.88;76.29
34742;BME280;20968;42.696;23.360;2023-05-28T02:13:47;95087.97;;;16.88;75.63
34742;BME280;20968;42.696;23.360;2023-05-28T02:16:13;95081.47;;;16.80;75.83
34742;BME280;20968;42.696;23.360;2023-05-28T02:18:44;95079.03;;;16.71;75.61
34742;BME280;20968;42.696;23.360;2023-05-28T02:21:13;95078.28;;;16.71;75.49
34742;BME280;20968;42.696;23.360;2023-05-28T02:23:45;95069.41;;;16.72;75.49
34742;BME280;20968;42.696;23.360;2023-05-28T02:26:11;95081.31;;;16.73;75.71
34742;BME280;20968;42.696;23.360;2023-05-28T02:28:37;95097.47;;;16.74;76.15
34742;BME280;20968;42.696;23.360;2023-05-28T02:31:08;95083.88;;;16.65;75.54
34742;BME280;20968;42.696;23.360;2023-05-28T02:33:34;95084.41;;;16.64;75.89
34742;BME280;20968;42.696;23.360;2023-05-28T02:36:00;95102.31;;;16.68;75.99
34742;BME280;20968;42.696;23.360;2023-05-28T02:38:26;95081.09;;;16.65;76.36
34742;BME280;20968;42.696;23.360;2023-05-28T02:40:52;95083.31;;;16.72;75.72
34742;BME280;20968;42.696;23.360;2023-05-28T02:43:20;95081.59;;;16.69;75.04
34742;BME280;20968;42.696;23.360;2023-05-28T02:45:47;95092.16;;;16.76;75.43
34742;BME280;20968;42.696;23.360;2023-05-28T02:48:14;95084.53;;;16.77;76.10
34742;BME280;20968;42.696;23.360;2023-05-28T02:50:40;95091.09;;;16.79;75.65
34742;BME280;20968;42.696;23.360;2023-05-28T02:53:06;95092.59;;;16.80;75.55
34742;BME280;20968;42.696;23.360;2023-05-28T02:55:32;95081.47;;;16.80;75.77
34742;BME280;20968;42.696;23.360;2023-05-28T02:57:58;95092.59;;;16.80;76.26
34742;BME280;20968;42.696;23.360;2023-05-28T03:00:27;95090.06;;;16.82;75.41
34742;BME280;20968;42.696;23.360;2023-05-28T03:03:08;95085.31;;;16.77;75.27
34742;BME280;20968;42.696;23.360;2023-05-28T03:05:42;95082.75;;;16.79;75.58
34742;BME280;20968;42.696;23.360;2023-05-28T03:08:09;95072.19;;;16.72;74.91
34742;BME280;20968;42.696;23.360;2023-05-28T03:10:35;95077.25;;;16.74;75.20
34742;BME280;20968;42.696;23.360;2023-05-28T03:13:03;95081.03;;;16.76;75.99
34742;BME280;20968;42.696;23.360;2023-05-28T03:15:29;95083.28;;;16.78;75.58
34742;BME280;20968;42.696;23.360;2023-05-28T03:17:57;95095.53;;;16.93;75.60
34742;BME280;20968;42.696;23.360;2023-05-28T03:20:24;95086.34;;;16.98;75.30
34742;BME280;20968;42.696;23.360;2023-05-28T03:22:57;95087.81;;;17.05;74.62
34742;BME280;20968;42.696;23.360;2023-05-28T03:25:26;95094.06;;;17.11;74.77
34742;BME280;20968;42.696;23.360;2023-05-28T03:27:52;95091.28;;;17.11;74.72
34742;BME280;20968;42.696;23.360;2023-05-28T03:30:18;95091.09;;;17.03;74.72
34742;BME280;20968;42.696;23.360;2023-05-28T03:32:44;95091.88;;;17.04;74.44
34742;BME280;20968;42.696;23.360;2023-05-28T03:35:13;95090.31;;;17.08;75.33
34742;BME280;20968;42.696;23.360;2023-05-28T03:37:43;95093.09;;;17.08;74.84
34742;BME280;20968;42.696;23.360;2023-05-28T03:40:10;95094.06;;;17.11;74.53
34742;BME280;20968;42.696;23.360;2023-05-28T03:42:39;95086.94;;;17.15;74.67
34742;BME280;20968;42.696;23.360;2023-05-28T03:45:10;95101.00;;;17.22;74.61
34742;BME280;20968;42.696;23.360;2023-05-28T03:47:36;95104.75;;;17.25;74.19
34742;BME280;20968;42.696;23.360;2023-05-28T03:50:07;95098.94;;;17.28;74.68
34742;BME280;20968;42.696;23.360;2023-05-28T03:52:32;95093.38;;;17.28;74.22
34742;BME280;20968;42.696;23.360;2023-05-28T03:55:00;95091.59;;;17.31;74.68
34742;BME280;20968;42.696;23.360;2023-05-28T03:57:25;95096.22;;;17.23;74.20
34742;BME280;20968;42.696;23.360;2023-05-28T03:59:50;95099.56;;;17.16;74.81
34742;BME280;20968;42.696;23.360;2023-05-28T04:02:19;95102.81;;;17.20;74.96
34742;BME280;20968;42.696;23.360;2023-05-28T04:04:44;95096.66;;;17.27;74.82
34742;BME280;20968;42.696;23.360;2023-05-28T04:07:17;95092.63;;;17.28;74.54
34742;BME280;20968;42.696;23.360;2023-05-28T04:09:46;95095.84;;;17.32;74.89
34742;BME280;20968;42.696;23.360;2023-05-28T04:12:11;95099.56;;;17.40;74.82
34742;BME280;20968;42.696;23.360;2023-05-28T04:14:38;95105.00;;;17.51;74.07
34742;BME280;20968;42.696;23.360;2023-05-28T04:17:05;95105.97;;;17.53;74.10
34742;BME280;20968;42.696;23.360;2023-05-28T04:19:31;95100.59;;;17.61;74.24
34742;BME280;20968;42.696;23.360;2023-05-28T04:21:57;95099.28;;;17.62;73.60
34742;BME280;20968;42.696;23.360;2023-05-28T04:24:23;95105.03;;;17.69;73.96
34742;BME280;20968;42.696;23.360;2023-05-28T04:26:50;95104.03;;;17.67;73.97
34742;BME280;20968;42.696;23.360;2023-05-28T04:29:16;95115.72;;;17.84;73.66
34742;BME280;20968;42.696;23.360;2023-05-28T04:31:43;95111.06;;;17.92;72.99
34742;BME280;20968;42.696;23.360;2023-05-28T04:34:11;95104.19;;;17.92;72.74
34742;BME280;20968;42.696;23.360;2023-05-28T04:36:40;95109.19;;;17.99;73.18
34742;BME280;20968;42.696;23.360;2023-05-28T04:39:08;95099.44;;;18.06;73.10
34742;BME280;20968;42.696;23.360;2023-05-28T04:41:39;95105.38;;;18.15;71.71
34742;BME280;20968;42.696;23.360;2023-05-28T04:44:07;95106.69;;;18.14;72.00
34742;BME280;20968;42.696;23.360;2023-05-28T04:49:00;95108.63;;;18.19;71.72
34742;BME280;20968;42.696;23.360;2023-05-28T04:51:42;95101.25;;;18.22;71.61
34742;BME280;20968;42.696;23.360;2023-05-28T04:54:34;95101.91;;;18.09;71.33
34742;BME280;20968;42.696;23.360;2023-05-28T04:57:03;95099.31;;;17.98;71.32
34742;BME280;20968;42.696;23.360;2023-05-28T04:59:52;95102.75;;;18.04;70.65
34742;BME280;20968;42.696;23.360;2023-05-28T05:02:21;95113.22;;;18.17;70.48
34742;BME280;20968;42.696;23.360;2023-05-28T05:04:52;95104.31;;;18.18;71.02
34742;BME280;20968;42.696;23.360;2023-05-28T05:07:52;95101.78;;;18.20;70.02
34742;BME280;20968;42.696;23.360;2023-05-28T05:10:49;95120.16;;;18.29;70.28
34742;BME280;20968;42.696;23.360;2023-05-28T05:13:17;95111.78;;;18.29;70.33
34742;BME280;20968;42.696;23.360;2023-05-28T05:16:03;95115.81;;;18.46;70.10
34742;BME280;20968;42.696;23.360;2023-05-28T05:18:36;95097.91;;;18.42;69.75
34742;BME280;20968;42.696;23.360;2023-05-28T05:23:52;95104.88;;;18.35;69.72
34742;BME280;20968;42.696;23.360;2023-05-28T05:26:26;95111.44;;;18.51;69.89
34742;BME280;20968;42.696;23.360;2023-05-28T05:28:51;95109.63;;;18.53;69.66
34742;BME280;20968;42.696;23.360;2023-05-28T05:31:32;95103.88;;;18.64;69.86
34742;BME280;20968;42.696;23.360;2023-05-28T05:34:05;95105.38;;;18.65;69.02
34742;BME280;20968;42.696;23.360;2023-05-28T05:36:49;95118.81;;;18.79;68.91
34742;BME280;20968;42.696;23.360;2023-05-28T05:39:22;95098.28;;;18.64;68.57
34742;BME280;20968;42.696;23.360;2023-05-28T05:42:01;95095.53;;;18.77;68.31
34742;BME280;20968;42.696;23.360;2023-05-28T05:44:28;95096.81;;;18.76;67.44
34742;BME280;20968;42.696;23.360;2023-05-28T05:47:10;95114.22;;;18.82;67.77
34742;BME280;20968;42.696;23.360;2023-05-28T05:49:39;95107.16;;;18.81;68.06
34742;BME280;20968;42.696;23.360;2023-05-28T05:52:06;95107.16;;;18.81;67.30
34742;BME280;20968;42.696;23.360;2023-05-28T05:54:35;95106.06;;;18.84;67.93
34742;BME280;20968;42.696;23.360;2023-05-28T05:57:01;95107.88;;;18.81;68.16
34742;BME280;20968;42.696;23.360;2023-05-28T05:59:33;95114.44;;;18.84;68.52
34742;BME280;20968;42.696;23.360;2023-05-28T06:02:06;95113.41;;;18.56;70.85
34742;BME280;20968;42.696;23.360;2023-05-28T06:04:33;95105.47;;;18.60;70.91
34742;BME280;20968;42.696;23.360;2023-05-28T06:07:03;95107.31;;;18.70;70.75
34742;BME280;20968;42.696;23.360;2023-05-28T06:09:44;95108.44;;;18.80;70.86
34742;BME280;20968;42.696;23.360;2023-05-28T06:12:34;95112.53;;;18.92;70.89
34742;BME280;20968;42.696;23.360;2023-05-28T06:15:05;95120.09;;;19.10;70.86
34742;BME280;20968;42.696;23.360;2023-05-28T06:17:35;95119.91;;;19.21;70.55
34742;BME280;20968;42.696;23.360;2023-05-28T06:20:01;95115.47;;;19.25;70.40
34742;BME280;20968;42.696;23.360;2023-05-28T06:22:36;95106.59;;;19.27;70.09
34742;BME280;20968;42.696;23.360;2023-05-28T06:28:01;95127.97;;;19.24;69.70
34742;BME280;20968;42.696;23.360;2023-05-28T06:30:28;95128.22;;;19.08;71.51
34742;BME280;20968;42.696;23.360;2023-05-28T06:33:00;95121.56;;;18.98;71.65
34742;BME280;20968;42.696;23.360;2023-05-28T06:35:28;95132.75;;;18.98;71.55
34742;BME280;20968;42.696;23.360;2023-05-28T06:38:12;95141.31;;;19.00;71.81
34742;BME280;20968;42.696;23.360;2023-05-28T06:40:48;95139.81;;;18.99;72.21
34742;BME280;20968;42.696;23.360;2023-05-28T06:43:20;95132.28;;;18.94;71.95
34742;BME280;20968;42.696;23.360;2023-05-28T06:45:56;95132.50;;;18.96;72.33
34742;BME280;20968;42.696;23.360;2023-05-28T06:48:23;95128.06;;;18.87;73.58
34742;BME280;20968;42.696;23.360;2023-05-28T06:50:48;95129.22;;;19.10;73.55
34742;BME280;20968;42.696;23.360;2023-05-28T06:53:14;95129.34;;;19.31;72.96
34742;BME280;20968;42.696;23.360;2023-05-28T06:55:39;95144.41;;;19.41;72.56
34742;BME280;20968;42.696;23.360;2023-05-28T06:58:05;95124.75;;;19.59;70.22
34742;BME280;20968;42.696;23.360;2023-05-28T07:00:30;95135.25;;;19.66;68.58
34742;BME280;20968;42.696;23.360;2023-05-28T07:03:23;95137.00;;;19.43;71.54
34742;BME280;20968;42.696;23.360;2023-05-28T07:05:50;95137.31;;;19.52;70.96
34742;BME280;20968;42.696;23.360;2023-05-28T07:08:23;95134.94;;;19.56;71.24
34742;BME280;20968;42.696;23.360;2023-05-28T07:11:05;95135.06;;;19.77;70.39
34742;BME280;20968;42.696;23.360;2023-05-28T07:13:39;95126.88;;;19.92;70.49
34742;BME280;20968;42.696;23.360;2023-05-28T07:16:24;95129.94;;;20.14;68.57
34742;BME280;20968;42.696;23.360;2023-05-28T07:19:11;95129.28;;;20.21;67.73
34742;BME280;20968;42.696;23.360;2023-05-28T07:21:46;95132.28;;;20.23;69.54
34742;BME280;20968;42.696;23.360;2023-05-28T07:24:43;95121.09;;;20.23;68.66
34742;BME280;20968;42.696;23.360;2023-05-28T07:27:26;95127.25;;;20.09;68.63
34742;BME280;20968;42.696;23.360;2023-05-28T07:30:17;95122.56;;;20.04;69.06
34742;BME280;20968;42.696;23.360;2023-05-28T07:32:48;95124.16;;;20.12;69.97
34742;BME280;20968;42.696;23.360;2023-05-28T07:35:30;95120.25;;;20.15;69.53
34742;BME280;20968;42.696;23.360;2023-05-28T07:38:21;95122.66;;;20.11;69.09
34742;BME280;20968;42.696;23.360;2023-05-28T07:40:49;95113.84;;;20.07;69.20
34742;BME280;20968;42.696;23.360;2023-05-28T07:43:16;95110.19;;;19.99;68.76
34742;BME280;20968;42.696;23.360;2023-05-28T07:45:45;95115.56;;;19.84;68.92
34742;BME280;20968;42.696;23.360;2023-05-28T07:48:15;95113.34;;;19.70;68.95
34742;BME280;20968;42.696;23.360;2023-05-28T07:50:40;95117.22;;;19.54;69.61
34742;BME280;20968;42.696;23.360;2023-05-28T07:53:16;95109.59;;;19.42;70.30
34742;BME280;20968;42.696;23.360;2023-05-28T07:55:44;95110.53;;;19.18;71.23
34742;BME280;20968;42.696;23.360;2023-05-28T07:58:14;95104.97;;;19.18;71.68
34742;BME280;20968;42.696;23.360;2023-05-28T08:00:41;95112.81;;;19.33;73.32
34742;BME280;20968;42.696;23.360;2023-05-28T08:03:06;95106.59;;;19.40;71.88
34742;BME280;20968;42.696;23.360;2023-05-28T08:05:32;95106.25;;;19.69;72.99
34742;BME280;20968;42.696;23.360;2023-05-28T08:07:58;95102.88;;;19.83;70.89
34742;BME280;20968;42.696;23.360;2023-05-28T08:10:23;95108.28;;;19.94;69.74
34742;BME280;20968;42.696;23.360;2023-05-28T08:12:49;95103.53;;;20.02;70.55
34742;BME280;20968;42.696;23.360;2023-05-28T08:15:14;95116.91;;;20.17;70.23
34742;BME280;20968;42.696;23.360;2023-05-28T08:17:40;95117.22;;;20.26;71.38
34742;BME280;20968;42.696;23.360;2023-05-28T08:20:06;95116.97;;;20.37;68.76
34742;BME280;20968;42.696;23.360;2023-05-28T08:22:34;95114.66;;;20.15;68.25
34742;BME280;20968;42.696;23.360;2023-05-28T08:25:00;95115.22;;;20.47;69.65
34742;BME280;20968;42.696;23.360;2023-05-28T08:27:27;95104.13;;;20.41;66.66
34742;BME280;20968;42.696;23.360;2023-05-28T08:29:58;95111.13;;;20.48;65.26
34742;BME280;20968;42.696;23.360;2023-05-28T08:32:24;95121.09;;;20.23;65.69
34742;BME280;20968;42.696;23.360;2023-05-28T08:34:53;95120.94;;;20.08;66.09
34742;BME280;20968;42.696;23.360;2023-05-28T08:37:18;95121.94;;;19.98;66.68
34742;BME280;20968;42.696;23.360;2023-05-28T08:39:47;95117.06;;;19.98;66.80
34742;BME280;20968;42.696;23.360;2023-05-28T08:42:13;95118.66;;;19.94;67.40
34742;BME280;20968;42.696;23.360;2023-05-28T08:44:40;95110.88;;;20.26;67.22
34742;BME280;20968;42.696;23.360;2023-05-28T08:47:28;95108.72;;;20.52;66.52
34742;BME280;20968;42.696;23.360;2023-05-28T08:50:12;95118.06;;;20.88;64.82
34742;BME280;20968;42.696;23.360;2023-05-28T08:56:05;95123.16;;;20.97;64.14
34742;BME280;20968;42.696;23.360;2023-05-28T09:02:02;95121.38;;;21.07;63.55
34742;BME280;20968;42.696;23.360;2023-05-28T09:04:44;95103.22;;;21.00;62.60
34742;BME280;20968;42.696;23.360;2023-05-28T09:07:33;95108.81;;;21.00;63.23
34742;BME280;20968;42.696;23.360;2023-05-28T09:09:59;95106.69;;;21.13;61.78
34742;BME280;20968;42.696;23.360;2023-05-28T09:12:35;95102.31;;;21.25;63.05
34742;BME280;20968;42.696;23.360;2023-05-28T09:15:08;95098.03;;;21.04;64.37
34742;BME280;20968;42.696;23.360;2023-05-28T09:17:38;95099.78;;;20.74;65.36
34742;BME280;20968;42.696;23.360;2023-05-28T09:20:14;95115.97;;;20.68;64.98
34742;BME280;20968;42.696;23.360;2023-05-28T09:22:41;95106.16;;;20.74;63.96
34742;BME280;20968;42.696;23.360;2023-05-28T09:28:50;95100.09;;;21.31;63.27
34742;BME280;20968;42.696;23.360;2023-05-28T09:31:54;95092.84;;;21.64;62.73
34742;BME280;20968;42.696;23.360;2023-05-28T09:34:20;95109.19;;;21.52;61.33
34742;BME280;20968;42.696;23.360;2023-05-28T09:36:52;95115.28;;;21.64;60.81
34742;BME280;20968;42.696;23.360;2023-05-28T09:39:18;95110.41;;;21.64;60.42
34742;BME280;20968;42.696;23.360;2023-05-28T09:41:45;95114.34;;;21.41;61.48
34742;BME280;20968;42.696;23.360;2023-05-28T09:44:11;95116.50;;;21.27;62.09
34742;BME280;20968;42.696;23.360;2023-05-28T09:46:38;95123.44;;;21.06;63.94
34742;BME280;20968;42.696;23.360;2023-05-28T09:49:03;95121.25;;;21.12;64.03
34742;BME280;20968;42.696;23.360;2023-05-28T09:51:31;95130.47;;;21.20;64.12
34742;BME280;20968;42.696;23.360;2023-05-28T09:54:00;95122.66;;;21.26;63.48
34742;BME280;20968;42.696;23.360;2023-05-28T09:56:28;95113.63;;;21.40;64.02
34742;BME280;20968;42.696;23.360;2023-05-28T09:59:00;95121.31;;;21.75;61.99
34742;BME280;20968;42.696;23.360;2023-05-28T10:01:41;95121.22;;;22.31;61.62
34742;BME280;20968;42.696;23.360;2023-05-28T10:04:09;95119.78;;;22.45;59.82
34742;BME280;20968;42.696;23.360;2023-05-28T10:06:38;95121.63;;;22.42;60.43
34742;BME280;20968;42.696;23.360;2023-05-28T10:09:09;95121.59;;;22.35;58.68
34742;BME280;20968;42.696;23.360;2023-05-28T10:12:03;95138.28;;;21.97;59.48
34742;BME280;20968;42.696;23.360;2023-05-28T10:14:31;95142.81;;;21.73;60.09
34742;BME280;20968;42.696;23.360;2023-05-28T10:16:57;95133.50;;;21.29;60.91
34742;BME280;20968;42.696;23.360;2023-05-28T10:19:24;95129.56;;;21.25;60.67
34742;BME280;20968;42.696;23.360;2023-05-28T10:21:49;95130.25;;;21.18;61.76
34742;BME280;20968;42.696;23.360;2023-05-28T10:24:15;95119.00;;;21.11;62.01
34742;BME280;20968;42.696;23.360;2023-05-28T10:26:41;95119.19;;;20.92;62.59
34742;BME280;20968;42.696;23.360;2023-05-28T10:29:07;95121.03;;;20.90;62.98
34742;BME280;20968;42.696;23.360;2023-05-28T10:31:33;95133.16;;;20.85;62.29
34742;BME280;20968;42.696;23.360;2023-05-28T10:33:58;95119.19;;;20.92;62.98
34742;BME280;20968;42.696;23.360;2023-05-28T10:36:24;95115.66;;;21.12;61.88
34742;BME280;20968;42.696;23.360;2023-05-28T10:41:20;95113.25;;;21.44;61.08
34742;BME280;20968;42.696;23.360;2023-05-28T10:43:50;95117.66;;;21.88;61.65
34742;BME280;20968;42.696;23.360;2023-05-28T10:49:14;95117.56;;;22.58;58.57
34742;BME280;20968;42.696;23.360;2023-05-28T10:51:57;95107.06;;;22.51;58.51
34742;BME280;20968;42.696;23.360;2023-05-28T10:57:16;95106.56;;;22.17;58.44
34742;BME280;20968;42.696;23.360;2023-05-28T10:59:52;95096.72;;;22.31;59.70
34742;BME280;20968;42.696;23.360;2023-05-28T11:02:33;95096.94;;;22.48;58.57
34742;BME280;20968;42.696;23.360;2023-05-28T11:05:02;95104.84;;;22.14;57.86
34742;BME280;20968;42.696;23.360;2023-05-28T11:09:56;95090.94;;;21.94;59.38
34742;BME280;20968;42.696;23.360;2023-05-28T11:12:22;95094.53;;;22.02;58.57
34742;BME280;20968;42.696;23.360;2023-05-28T11:14:48;95079.72;;;21.94;58.99
34742;BME280;20968;42.696;23.360;2023-05-28T11:17:14;95089.56;;;21.80;59.25
34742;BME280;20968;42.696;23.360;2023-05-28T11:19:44;95080.16;;;22.13;59.14
34742;BME280;20968;42.696;23.360;2023-05-28T11:22:12;95090.00;;;22.34;58.71
34742;BME280;20968;42.696;23.360;2023-05-28T11:24:57;95093.47;;;22.20;57.32
34742;BME280;20968;42.696;23.360;2023-05-28T11:27:24;95083.00;;;22.20;58.18
34742;BME280;20968;42.696;23.360;2023-05-28T11:30:13;95092.94;;;22.29;57.76
34742;BME280;20968;42.696;23.360;2023-05-28T11:33:01;95084.03;;;22.53;56.99
34742;BME280;20968;42.696;23.360;2023-05-28T11:35:32;95077.13;;;22.61;56.04
34742;BME280;20968;42.696;23.360;2023-05-28T11:37:59;95085.88;;;22.35;56.43
34742;BME280;20968;42.696;23.360;2023-05-28T11:41:00;95074.56;;;23.08;56.55
34742;BME280;20968;42.696;23.360;2023-05-28T11:43:39;95067.03;;;23.25;54.94
34742;BME280;20968;42.696;23.360;2023-05-28T11:46:17;95078.09;;;23.01;54.83
34742;BME280;20968;42.696;23.360;2023-05-28T11:48:46;95073.72;;;22.40;56.14
34742;BME280;20968;42.696;23.360;2023-05-28T11:54:56;95065.47;;;21.85;57.87
34742;BME280;20968;42.696;23.360;2023-05-28T12:00:09;95071.69;;;22.71;58.16
34742;BME280;20968;42.696;23.360;2023-05-28T12:02:49;95068.50;;;22.59;56.54
34742;BME280;20968;42.696;23.360;2023-05-28T12:08:16;95073.03;;;22.12;56.73
34742;BME280;20968;42.696;23.360;2023-05-28T12:11:26;95055.22;;;21.94;56.67
34742;BME280;20968;42.696;23.360;2023-05-28T12:14:16;95065.28;;;21.90;57.04
34742;BME280;20968;42.696;23.360;2023-05-28T12:17:19;95066.16;;;21.70;58.27
34742;BME280;20968;42.696;23.360;2023-05-28T12:19:50;95073.78;;;21.62;59.62
34742;BME280;20968;42.696;23.360;2023-05-28T12:22:17;95065.16;;;21.60;59.40
34742;BME280;20968;42.696;23.360;2023-05-28T12:24:51;95066.47;;;21.59;59.25
34742;BME280;20968;42.696;23.360;2023-05-28T12:27:27;95057.34;;;21.66;58.66
34742;BME280;20968;42.696;23.360;2023-05-28T12:29:54;95064.44;;;21.67;58.78
34742;BME280;20968;42.696;23.360;2023-05-28T12:32:21;95071.91;;;21.65;58.76
34742;BME280;20968;42.696;23.360;2023-05-28T12:34:48;95065.25;;;21.47;59.08
34742;BME280;20968;42.696;23.360;2023-05-28T12:37:18;95057.44;;;21.53;58.80
34742;BME280;20968;42.696;23.360;2023-05-28T12:39:44;95058.31;;;21.41;58.68
34742;BME280;20968;42.696;23.360;2023-05-28T12:42:10;95062.03;;;21.43;59.22
34742;BME280;20968;42.696;23.360;2023-05-28T12:44:35;95064.97;;;21.58;58.75
34742;BME280;20968;42.696;23.360;2023-05-28T12:47:20;95056.25;;;21.69;59.63
34742;BME280;20968;42.696;23.360;2023-05-28T12:49:48;95058.28;;;21.69;59.01
34742;BME280;20968;42.696;23.360;2023-05-28T12:52:31;95055.47;;;21.61;59.07
34742;BME280;20968;42.696;23.360;2023-05-28T12:55:03;95056.59;;;21.66;60.11
34742;BME280;20968;42.696;23.360;2023-05-28T12:57:30;95045.03;;;21.41;58.02
34742;BME280;20968;42.696;23.360;2023-05-28T12:59:56;95053.19;;;21.32;57.79
34742;BME280;20968;42.696;23.360;2023-05-28T13:02:22;95044.34;;;21.20;58.88
34742;BME280;20968;42.696;23.360;2023-05-28T13:04:47;95039.66;;;21.15;58.64
34742;BME280;20968;42.696;23.360;2023-05-28T13:07:13;95044.69;;;21.17;57.79
34742;BME280;20968;42.696;23.360;2023-05-28T13:09:39;95038.38;;;21.16;58.49
34742;BME280;20968;42.696;23.360;2023-05-28T13:12:05;95027.00;;;21.22;59.21
34742;BME280;20968;42.696;23.360;2023-05-28T13:14:31;95026.69;;;21.33;58.28
34742;BME280;20968;42.696;23.360;2023-05-28T13:16:57;95027.69;;;21.43;59.29
34742;BME280;20968;42.696;23.360;2023-05-28T13:19:25;95031.44;;;21.53;58.78
34742;BME280;20968;42.696;23.360;2023-05-28T13:21:58;95015.97;;;21.52;59.28
34742;BME280;20968;42.696;23.360;2023-05-28T13:24:26;95012.81;;;21.27;59.51
34742;BME280;20968;42.696;23.360;2023-05-28T13:27:18;95009.50;;;21.36;59.97
34742;BME280;20968;42.696;23.360;2023-05-28T13:29:47;94999.06;;;21.37;60.12
34742;BME280;20968;42.696;23.360;2023-05-28T13:35:51;94984.72;;;21.48;59.54
34742;BME280;20968;42.696;23.360;2023-05-28T13:38:58;94994.84;;;22.08;61.96
34742;BME280;20968;42.696;23.360;2023-05-28T13:42:10;94991.75;;;22.57;57.88
34742;BME280;20968;42.696;23.360;2023-05-28T13:45:26;94997.00;;;22.53;57.44
34742;BME280;20968;42.696;23.360;2023-05-28T13:51:51;94987.63;;;22.35;56.34
34742;BME280;20968;42.696;23.360;2023-05-28T13:54:36;94985.19;;;22.54;58.10
34742;BME280;20968;42.696;23.360;2023-05-28T14:47:31;94941.72;;;23.61;51.42
34742;BME280;20968;42.696;23.360;2023-05-28T14:49:57;94933.84;;;23.60;52.30